createdAt,value
2022-09-24T00:01:45.435Z,10.50
2022-09-24T00:04:14.160Z,10.47
2022-09-24T00:06:44.556Z,10.46
2022-09-24T00:09:13.511Z,10.41
2022-09-24T00:11:43.020Z,10.37
2022-09-24T00:14:11.144Z,10.38
2022-09-24T00:16:41.462Z,10.36
2022-09-24T00:19:12.687Z,10.33
2022-09-24T00:21:41.603Z,10.30
2022-09-24T00:24:11.780Z,10.33
2022-09-24T00:26:50.556Z,10.33
2022-09-24T00:29:20.010Z,10.36
2022-09-24T00:31:48.649Z,10.37
2022-09-24T00:34:18.170Z,10.45
2022-09-24T00:36:47.055Z,10.50
2022-09-24T00:39:15.586Z,10.52
2022-09-24T00:41:48.899Z,10.54
2022-09-24T00:44:54.065Z,10.58
2022-09-24T00:47:32.114Z,10.62
2022-09-24T00:50:08.581Z,10.64
2022-09-24T00:52:40.653Z,10.63
2022-09-24T00:55:10.308Z,10.62
2022-09-24T00:57:39.895Z,10.57
2022-09-24T01:00:09.258Z,10.50
2022-09-24T01:02:40.198Z,10.45
2022-09-24T01:05:11.229Z,10.43
2022-09-24T01:07:39.153Z,10.40
2022-09-24T01:10:07.863Z,10.38
2022-09-24T01:12:47.628Z,10.28
2022-09-24T01:15:25.734Z,10.27
2022-09-24T01:18:01.658Z,10.23
2022-09-24T01:20:54.397Z,10.20
2022-09-24T01:23:57.223Z,10.20
2022-09-24T01:26:42.657Z,10.27
2022-09-24T01:29:32.560Z,10.26
2022-09-24T01:32:05.970Z,10.28
2022-09-24T01:34:41.249Z,10.29
2022-09-24T01:37:10.095Z,10.25
2022-09-24T01:39:39.202Z,10.28
2022-09-24T01:42:09.406Z,10.22
2022-09-24T01:44:44.190Z,10.25
2022-09-24T01:47:18.447Z,10.26
2022-09-24T01:49:47.006Z,10.25
2022-09-24T01:52:21.093Z,10.25
2022-09-24T01:54:52.298Z,10.24
2022-09-24T01:57:24.784Z,10.24
2022-09-24T02:00:00.436Z,10.22
2022-09-24T02:02:33.993Z,10.22
2022-09-24T02:05:08.777Z,10.22
2022-09-24T02:07:40.706Z,10.22
2022-09-24T02:10:15.447Z,10.23
2022-09-24T02:12:46.890Z,10.24
2022-09-24T02:15:20.717Z,10.23
2022-09-24T02:17:55.878Z,10.29
2022-09-24T02:20:27.041Z,10.33
2022-09-24T02:22:58.395Z,10.34
2022-09-24T02:25:32.314Z,10.36
2022-09-24T02:28:00.508Z,10.37
2022-09-24T02:30:32.313Z,10.33
2022-09-24T02:33:01.032Z,10.30
2022-09-24T02:35:28.090Z,10.21
2022-09-24T02:37:56.121Z,10.14
2022-09-24T02:40:24.139Z,10.12
2022-09-24T02:42:52.201Z,10.08
2022-09-24T02:45:20.142Z,10.05
2022-09-24T02:47:49.496Z,10.03
2022-09-24T02:50:17.583Z,10.03
2022-09-24T02:52:45.546Z,10.04
2022-09-24T02:55:13.507Z,10.03
2022-09-24T02:57:41.469Z,10.02
2022-09-24T03:00:10.949Z,9.99
2022-09-24T03:02:39.069Z,9.99
2022-09-24T03:05:09.405Z,10.02
2022-09-24T03:07:37.389Z,10.03
2022-09-24T03:10:06.118Z,10.05
2022-09-24T03:12:34.485Z,10.08
2022-09-24T03:15:02.458Z,10.09
2022-09-24T03:17:30.897Z,10.11
2022-09-24T03:19:58.886Z,10.12
2022-09-24T03:22:28.192Z,10.11
2022-09-24T03:24:56.237Z,10.13
2022-09-24T03:27:24.246Z,10.14
2022-09-24T03:30:09.552Z,10.13
2022-09-24T03:32:39.195Z,10.15
2022-09-24T03:35:08.391Z,10.15
2022-09-24T03:37:38.662Z,10.14
2022-09-24T03:40:07.992Z,10.17
2022-09-24T03:42:36.442Z,10.13
2022-09-24T03:45:05.230Z,10.06
2022-09-24T03:47:33.608Z,10.03
2022-09-24T03:50:02.540Z,10.00
2022-09-24T03:52:30.473Z,10.01
2022-09-24T03:54:59.790Z,10.01
2022-09-24T03:57:27.804Z,10.01
2022-09-24T03:59:55.786Z,10.01
2022-09-24T04:02:23.859Z,10.05
2022-09-24T04:04:52.161Z,10.06
2022-09-24T04:07:20.093Z,10.11
2022-09-24T04:09:48.210Z,10.14
2022-09-24T04:12:17.617Z,10.17
2022-09-24T04:14:45.629Z,10.22
2022-09-24T04:17:14.426Z,10.26
2022-09-24T04:19:42.370Z,10.31
2022-09-24T04:22:10.347Z,10.35
2022-09-24T04:24:38.319Z,10.37
2022-09-24T04:27:06.419Z,10.38
2022-09-24T04:29:35.759Z,10.37
2022-09-24T04:32:03.937Z,10.35
2022-09-24T04:34:32.009Z,10.35
2022-09-24T04:37:00.027Z,10.35
2022-09-24T04:39:28.109Z,10.35
2022-09-24T04:41:56.114Z,10.35
2022-09-24T04:44:24.390Z,10.25
2022-09-24T04:46:55.782Z,10.33
2022-09-24T04:49:24.202Z,10.36
2022-09-24T04:51:52.142Z,10.36
2022-09-24T04:54:20.651Z,10.36
2022-09-24T04:56:48.901Z,10.37
2022-09-24T04:59:16.961Z,10.37
2022-09-24T05:01:46.317Z,10.40
2022-09-24T05:04:15.957Z,10.40
2022-09-24T05:06:43.948Z,10.42
2022-09-24T05:09:12.882Z,10.43
2022-09-24T05:11:40.914Z,10.42
2022-09-24T05:14:08.894Z,10.38
2022-09-24T05:16:36.948Z,10.37
2022-09-24T05:19:05.515Z,10.36
2022-09-24T05:21:34.888Z,10.37
2022-09-24T05:24:03.117Z,10.33
2022-09-24T05:26:48.841Z,10.32
2022-09-24T05:29:16.806Z,10.30
2022-09-24T05:31:45.120Z,10.30
2022-09-24T05:34:14.240Z,10.34
2022-09-24T05:36:43.974Z,10.29
2022-09-24T05:39:12.934Z,10.32
2022-09-24T05:41:41.458Z,10.33
2022-09-24T05:44:11.054Z,10.33
2022-09-24T05:46:39.120Z,10.37
2022-09-24T05:49:07.753Z,10.35
2022-09-24T05:51:35.858Z,10.39
2022-09-24T05:54:05.402Z,10.40
2022-09-24T05:56:33.409Z,10.42
2022-09-24T05:59:01.997Z,10.48
2022-09-24T06:01:31.017Z,10.55
2022-09-24T06:04:00.874Z,10.59
2022-09-24T06:06:31.515Z,10.59
2022-09-24T06:08:59.517Z,10.67
2022-09-24T06:11:36.366Z,10.66
2022-09-24T06:14:09.020Z,10.71
2022-09-24T06:16:37.414Z,10.62
2022-09-24T06:19:05.565Z,10.74
2022-09-24T06:21:33.584Z,10.74
2022-09-24T06:24:01.822Z,10.71
2022-09-24T06:26:31.109Z,10.72
2022-09-24T06:29:04.459Z,10.73
2022-09-24T06:31:34.663Z,10.71
2022-09-24T06:34:03.698Z,10.71
2022-09-24T06:36:31.666Z,10.73
2022-09-24T06:38:59.648Z,10.74
2022-09-24T06:41:27.646Z,10.76
2022-09-24T06:43:57.202Z,10.80
2022-09-24T06:46:25.885Z,10.80
2022-09-24T06:48:55.144Z,10.82
2022-09-24T06:51:23.395Z,10.82
2022-09-24T06:53:52.270Z,10.82
2022-09-24T06:56:20.839Z,10.83
2022-09-24T06:58:48.867Z,10.81
2022-09-24T07:01:18.227Z,10.83
2022-09-24T07:03:46.193Z,10.85
2022-09-24T07:06:14.158Z,10.87
2022-09-24T07:08:42.345Z,10.85
2022-09-24T07:11:10.324Z,10.85
2022-09-24T07:13:38.279Z,10.84
2022-09-24T07:16:06.601Z,10.86
2022-09-24T07:18:37.540Z,10.87
2022-09-24T07:21:05.661Z,10.88
2022-09-24T07:23:33.652Z,10.86
2022-09-24T07:26:01.618Z,10.88
2022-09-24T07:28:29.574Z,10.87
2022-09-24T07:30:59.606Z,10.89
2022-09-24T07:33:27.979Z,10.87
2022-09-24T07:35:57.340Z,10.87
2022-09-24T07:38:25.329Z,10.89
2022-09-24T07:40:58.129Z,10.87
2022-09-24T07:43:30.465Z,10.87
2022-09-24T07:45:58.938Z,10.88
2022-09-24T07:48:26.886Z,10.87
2022-09-24T07:50:55.883Z,10.89
2022-09-24T07:53:25.271Z,10.91
2022-09-24T07:55:53.593Z,10.95
2022-09-24T07:58:21.912Z,10.95
2022-09-24T08:00:49.886Z,10.95
2022-09-24T08:03:18.014Z,10.97
2022-09-24T08:05:46.691Z,10.95
2022-09-24T08:08:15.217Z,10.98
2022-09-24T08:10:45.009Z,10.94
2022-09-24T08:13:13.206Z,10.97
2022-09-24T08:15:41.748Z,10.98
2022-09-24T08:18:09.854Z,10.98
2022-09-24T08:20:39.218Z,10.98
2022-09-24T08:23:09.934Z,10.97
2022-09-24T08:25:38.020Z,10.95
2022-09-24T08:28:09.071Z,10.98
2022-09-24T08:30:37.273Z,11.01
2022-09-24T08:33:06.746Z,11.01
2022-09-24T08:35:35.421Z,11.03
2022-09-24T08:38:03.555Z,11.03
2022-09-24T08:40:34.572Z,11.05
2022-09-24T08:43:14.324Z,11.04
2022-09-24T08:46:03.953Z,11.08
2022-09-24T08:48:37.254Z,11.11
2022-09-24T08:51:09.467Z,11.15
2022-09-24T08:53:47.906Z,11.18
2022-09-24T08:56:22.113Z,11.21
2022-09-24T08:58:56.263Z,11.26
2022-09-24T09:01:36.965Z,11.24
2022-09-24T09:04:19.744Z,11.24
2022-09-24T09:07:01.623Z,11.28
2022-09-24T09:09:42.391Z,11.28
2022-09-24T09:12:16.382Z,11.33
2022-09-24T09:14:51.153Z,11.40
2022-09-24T09:17:33.387Z,11.43
2022-09-24T09:20:05.597Z,11.39
2022-09-24T09:22:38.682Z,11.47
2022-09-24T09:25:18.421Z,11.47
2022-09-24T09:27:47.765Z,11.51
2022-09-24T09:30:19.826Z,11.52
2022-09-24T09:33:12.413Z,11.56
2022-09-24T09:35:47.431Z,11.58
2022-09-24T09:38:23.511Z,11.57
2022-09-24T09:41:01.828Z,11.61
2022-09-24T09:43:30.354Z,11.67
2022-09-24T09:46:12.687Z,11.72
2022-09-24T09:48:46.256Z,11.74
2022-09-24T09:51:22.750Z,11.80
2022-09-24T09:53:59.137Z,11.82
2022-09-24T09:56:30.327Z,11.87
2022-09-24T09:59:08.537Z,11.82
2022-09-24T10:01:40.573Z,11.88
2022-09-24T10:04:28.879Z,11.90
2022-09-24T10:07:05.278Z,12.00
2022-09-24T10:09:33.709Z,12.07
2022-09-24T10:12:09.710Z,12.06
2022-09-24T10:14:37.661Z,12.16
2022-09-24T10:17:07.354Z,12.21
2022-09-24T10:19:39.035Z,12.15
2022-09-24T10:22:15.137Z,12.08
2022-09-24T10:24:44.572Z,12.03
2022-09-24T10:27:13.779Z,12.04
2022-09-24T10:29:59.966Z,12.05
2022-09-24T10:32:30.558Z,12.04
2022-09-24T10:35:01.059Z,12.04
2022-09-24T10:40:00.599Z,12.02
2022-09-24T10:42:30.331Z,12.02
2022-09-24T10:45:02.282Z,12.01
2022-09-24T10:47:40.954Z,12.01
2022-09-24T10:50:26.069Z,12.03
2022-09-24T10:52:55.707Z,12.02
2022-09-24T10:55:48.230Z,12.00
2022-09-24T10:58:27.512Z,12.01
2022-09-24T11:01:08.426Z,12.03
2022-09-24T11:04:24.022Z,12.16
2022-09-24T11:07:09.528Z,12.29
2022-09-24T11:09:47.140Z,12.37
2022-09-24T11:12:22.977Z,12.48
2022-09-24T11:15:11.840Z,12.50
2022-09-24T11:17:45.009Z,12.55
2022-09-24T11:20:23.620Z,12.50
2022-09-24T11:23:27.370Z,12.51
2022-09-24T11:26:04.021Z,12.55
2022-09-24T11:29:03.139Z,12.58
2022-09-24T11:31:39.827Z,12.62
2022-09-24T11:34:21.753Z,12.69
2022-09-24T11:37:11.463Z,12.81
2022-09-24T11:39:56.213Z,12.78
2022-09-24T11:42:29.036Z,12.84
2022-09-24T11:45:25.099Z,12.87
2022-09-24T11:48:25.555Z,12.88
2022-09-24T11:51:03.568Z,12.91
2022-09-24T11:53:38.268Z,12.91
2022-09-24T11:56:14.317Z,12.90
2022-09-24T11:58:46.143Z,12.86
2022-09-24T12:01:18.117Z,12.82
2022-09-24T12:03:53.947Z,12.68
2022-09-24T12:06:26.283Z,12.64
2022-09-24T12:09:01.579Z,12.61
2022-09-24T12:11:36.733Z,12.54
2022-09-24T12:14:13.466Z,12.51
2022-09-24T12:16:44.423Z,12.43
2022-09-24T12:19:21.233Z,12.37
2022-09-24T12:21:52.831Z,12.40
2022-09-24T12:24:29.143Z,12.41
2022-09-24T12:27:03.721Z,12.40
2022-09-24T12:29:57.285Z,12.35
2022-09-24T12:32:50.379Z,12.37
2022-09-24T12:35:31.326Z,12.33
2022-09-24T12:38:05.170Z,12.31
2022-09-24T12:40:58.258Z,12.33
2022-09-24T12:43:34.260Z,12.33
2022-09-24T12:46:05.897Z,12.33
2022-09-24T12:48:38.420Z,12.34
2022-09-24T12:51:10.242Z,12.28
2022-09-24T12:53:42.181Z,12.27
2022-09-24T12:56:12.132Z,12.28
2022-09-24T12:58:43.596Z,12.25
2022-09-24T13:01:26.920Z,12.28
2022-09-24T13:04:05.727Z,12.30
2022-09-24T13:06:36.994Z,12.23
2022-09-24T13:09:25.962Z,12.30
2022-09-24T13:12:03.471Z,12.33
2022-09-24T13:14:35.610Z,12.38
2022-09-24T13:17:07.770Z,12.48
2022-09-24T13:19:40.809Z,12.60
2022-09-24T13:22:22.919Z,12.64
2022-09-24T13:24:53.086Z,12.69
2022-09-24T13:27:24.618Z,12.71
2022-09-24T13:30:06.962Z,12.84
2022-09-24T13:32:39.818Z,12.81
2022-09-24T13:35:19.514Z,12.82
2022-09-24T13:37:55.370Z,12.93
2022-09-24T13:40:28.297Z,12.99
2022-09-24T13:43:03.919Z,13.00
2022-09-24T13:45:37.047Z,13.01
2022-09-24T13:48:06.981Z,13.01
2022-09-24T13:50:38.193Z,12.93
2022-09-24T13:53:13.657Z,12.97
2022-09-24T13:55:46.672Z,12.97
2022-09-24T13:58:27.829Z,12.95
2022-09-24T14:00:59.764Z,13.03
2022-09-24T14:03:32.122Z,13.07
2022-09-24T14:06:01.334Z,13.08
2022-09-24T14:08:30.727Z,13.02
2022-09-24T14:11:14.391Z,13.00
2022-09-24T14:13:45.969Z,12.99
2022-09-24T14:16:19.094Z,12.93
2022-09-24T14:18:47.922Z,12.90
2022-09-24T14:21:22.254Z,12.91
2022-09-24T14:23:54.921Z,12.93
2022-09-24T14:26:28.873Z,12.84
2022-09-24T14:28:59.254Z,12.89
2022-09-24T14:31:29.213Z,12.82
2022-09-24T14:33:58.166Z,12.92
2022-09-24T14:36:29.136Z,12.88
2022-09-24T14:39:02.244Z,12.89
2022-09-24T14:41:32.477Z,12.88
2022-09-24T14:44:04.485Z,12.89
2022-09-24T14:46:36.458Z,12.96
2022-09-24T14:49:17.909Z,12.88
2022-09-24T14:51:52.790Z,12.83
2022-09-24T14:54:28.401Z,12.79
2022-09-24T14:56:56.878Z,12.85
2022-09-24T14:59:30.540Z,12.86
2022-09-24T15:02:17.227Z,12.87
2022-09-24T15:04:48.566Z,12.75
2022-09-24T15:07:22.907Z,12.78
2022-09-24T15:09:52.922Z,12.72
2022-09-24T15:12:25.112Z,12.74
2022-09-24T15:14:57.810Z,12.74
2022-09-24T15:17:32.955Z,12.72
2022-09-24T15:20:01.546Z,12.64
2022-09-24T15:22:31.097Z,12.63
2022-09-24T15:25:01.942Z,12.60
2022-09-24T15:27:32.267Z,12.58
2022-09-24T15:30:02.088Z,12.59
2022-09-24T15:32:35.004Z,12.57
2022-09-24T15:35:08.399Z,12.55
2022-09-24T15:37:40.128Z,12.54
2022-09-24T15:40:10.602Z,12.53
2022-09-24T15:42:38.609Z,12.48
2022-09-24T15:45:16.342Z,12.47
2022-09-24T15:47:45.921Z,12.48
2022-09-24T15:50:14.087Z,12.49
2022-09-24T15:52:47.664Z,12.46
2022-09-24T15:55:19.021Z,12.50
2022-09-24T15:57:47.293Z,12.49
2022-09-24T16:00:18.300Z,12.50
2022-09-24T16:02:52.206Z,12.51
2022-09-24T16:05:20.754Z,12.49
2022-09-24T16:07:49.299Z,12.48
2022-09-24T16:10:17.444Z,12.51
2022-09-24T16:12:45.453Z,12.48
2022-09-24T16:15:14.661Z,12.47
2022-09-24T16:17:42.697Z,12.47
2022-09-24T16:20:12.139Z,12.46
2022-09-24T16:22:40.086Z,12.43
2022-09-24T16:25:08.884Z,12.41
2022-09-24T16:27:37.662Z,12.36
2022-09-24T16:30:07.303Z,12.37
2022-09-24T16:32:35.286Z,12.40
2022-09-24T16:35:03.238Z,12.37
2022-09-24T16:37:42.135Z,12.38
2022-09-24T16:40:12.169Z,12.38
2022-09-24T16:42:40.206Z,12.36
2022-09-24T16:45:10.302Z,12.33
2022-09-24T16:47:38.354Z,12.28
2022-09-24T16:50:07.636Z,12.29
2022-09-24T16:52:37.032Z,12.24
2022-09-24T16:55:05.725Z,12.20
2022-09-24T16:57:36.477Z,12.15
2022-09-24T17:00:05.616Z,12.12
2022-09-24T17:02:33.618Z,12.12
2022-09-24T17:05:01.935Z,12.08
2022-09-24T17:07:30.941Z,12.04
2022-09-24T17:10:16.058Z,11.99
2022-09-24T17:12:46.218Z,11.92
2022-09-24T17:15:15.149Z,11.91
2022-09-24T17:17:49.348Z,11.86
2022-09-24T17:20:18.081Z,11.84
2022-09-24T17:22:48.220Z,11.79
2022-09-24T17:25:19.233Z,11.79
2022-09-24T17:27:47.209Z,11.74
2022-09-24T17:30:15.983Z,11.72
2022-09-24T17:32:44.263Z,11.74
2022-09-24T17:35:13.389Z,11.71
2022-09-24T17:37:41.394Z,11.70
2022-09-24T17:40:11.055Z,11.70
2022-09-24T17:42:45.853Z,11.73
2022-09-24T17:45:13.920Z,11.74
2022-09-24T17:48:01.116Z,11.76
2022-09-24T17:50:29.909Z,11.75
2022-09-24T17:52:58.712Z,11.74
2022-09-24T17:55:27.173Z,11.74
2022-09-24T17:57:56.490Z,11.73
2022-09-24T18:00:24.466Z,11.72
2022-09-24T18:02:55.280Z,11.72
2022-09-24T18:05:23.390Z,11.68
2022-09-24T18:07:51.432Z,11.59
2022-09-24T18:10:19.400Z,11.55
2022-09-24T18:12:47.398Z,11.52
2022-09-24T18:15:16.782Z,11.52
2022-09-24T18:17:44.762Z,11.52
2022-09-24T18:20:12.926Z,11.51
2022-09-24T18:22:40.904Z,11.51
2022-09-24T18:25:10.223Z,11.50
2022-09-24T18:27:38.537Z,11.51
2022-09-24T18:30:10.981Z,11.53
2022-09-24T18:32:40.523Z,11.54
2022-09-24T18:35:09.896Z,11.56
2022-09-24T18:37:38.018Z,11.56
2022-09-24T18:40:07.192Z,11.55
2022-09-24T18:42:35.220Z,11.52
2022-09-24T18:45:03.647Z,11.45
2022-09-24T18:47:31.615Z,11.41
2022-09-24T18:50:01.916Z,11.36
2022-09-24T18:52:31.054Z,11.36
2022-09-24T18:54:59.169Z,11.38
2022-09-24T18:57:27.110Z,11.40
2022-09-24T18:59:55.092Z,11.40
2022-09-24T19:02:26.357Z,11.44
2022-09-24T19:04:54.707Z,11.43
2022-09-24T19:07:24.013Z,11.43
2022-09-24T19:09:52.897Z,11.43
2022-09-24T19:12:21.368Z,11.44
2022-09-24T19:14:49.782Z,11.43
2022-09-24T19:17:17.754Z,11.44
2022-09-24T19:19:51.539Z,11.43
2022-09-24T19:22:20.385Z,11.44
2022-09-24T19:24:49.767Z,11.45
2022-09-24T19:27:17.712Z,11.42
2022-09-24T19:29:45.649Z,11.41
2022-09-24T19:32:14.385Z,11.43
2022-09-24T19:34:42.363Z,11.42
2022-09-24T19:37:10.309Z,11.43
2022-09-24T19:39:38.345Z,11.45
2022-09-24T19:42:07.716Z,11.44
2022-09-24T19:44:36.464Z,11.47
2022-09-24T19:47:04.966Z,11.47
2022-09-24T19:49:32.891Z,11.46
2022-09-24T19:52:01.065Z,11.46
2022-09-24T19:54:29.002Z,11.43
2022-09-24T19:56:57.007Z,11.46
2022-09-24T19:59:26.381Z,11.47
2022-09-24T20:01:54.897Z,11.47
2022-09-24T20:04:24.073Z,11.41
2022-09-24T20:06:54.143Z,11.47
2022-09-24T20:09:22.111Z,11.50
2022-09-24T20:11:50.480Z,11.50
2022-09-24T20:14:20.638Z,11.51
2022-09-24T20:16:49.949Z,11.51
2022-09-24T20:19:20.212Z,11.49
2022-09-24T20:21:48.134Z,11.51
2022-09-24T20:24:16.091Z,11.50
2022-09-24T20:27:01.815Z,11.49
2022-09-24T20:29:29.788Z,11.49
2022-09-24T20:31:59.102Z,11.47
2022-09-24T20:34:28.682Z,11.50
2022-09-24T20:36:59.734Z,11.49
2022-09-24T20:39:30.241Z,11.51
2022-09-24T20:42:01.634Z,11.47
2022-09-24T20:44:30.468Z,11.51
2022-09-24T20:46:59.832Z,11.50
2022-09-24T20:49:29.729Z,11.51
2022-09-24T20:51:58.193Z,11.54
2022-09-24T20:54:28.205Z,11.45
2022-09-24T20:56:56.240Z,11.52
2022-09-24T20:59:25.541Z,11.49
2022-09-24T21:01:53.980Z,11.50
2022-09-24T21:04:23.963Z,11.53
2022-09-24T21:06:51.986Z,11.52
2022-09-24T21:09:20.062Z,11.49
2022-09-24T21:11:50.131Z,11.48
2022-09-24T21:14:18.523Z,11.46
2022-09-24T21:16:46.691Z,11.46
2022-09-24T21:19:15.838Z,11.47
2022-09-24T21:21:45.369Z,11.48
2022-09-24T21:24:15.597Z,11.48
2022-09-24T21:26:45.113Z,11.48
2022-09-24T21:29:16.280Z,11.47
2022-09-24T21:31:46.225Z,11.44
2022-09-24T21:34:15.655Z,11.45
2022-09-24T21:36:46.461Z,11.44
2022-09-24T21:39:17.007Z,11.46
2022-09-24T21:41:49.835Z,11.46
2022-09-24T21:44:19.209Z,11.47
2022-09-24T21:46:48.881Z,11.47
2022-09-24T21:49:17.324Z,11.46
2022-09-24T21:51:47.247Z,11.44
2022-09-24T21:54:17.290Z,11.45
2022-09-24T21:56:45.632Z,11.46
2022-09-24T21:59:31.832Z,11.40
2022-09-24T22:02:00.155Z,11.45
2022-09-24T22:04:28.745Z,11.40
2022-09-24T22:06:58.727Z,11.47
2022-09-24T22:09:26.826Z,11.49
2022-09-24T22:11:55.776Z,11.44
2022-09-24T22:14:23.858Z,11.43
2022-09-24T22:16:51.921Z,11.41
2022-09-24T22:19:20.362Z,11.41
2022-09-24T22:21:48.361Z,11.39
2022-09-24T22:24:17.695Z,11.39
2022-09-24T22:26:46.077Z,11.40
2022-09-24T22:29:14.227Z,11.39
2022-09-24T22:31:42.186Z,11.30
2022-09-24T22:34:28.479Z,11.30
2022-09-24T22:36:56.504Z,11.36
2022-09-24T22:39:26.052Z,11.38
2022-09-24T22:41:54.145Z,11.35
2022-09-24T22:44:22.132Z,11.32
2022-09-24T22:46:50.098Z,11.37
2022-09-24T22:49:19.674Z,11.37
2022-09-24T22:51:47.689Z,11.38
2022-09-24T22:54:16.462Z,11.34
2022-09-24T22:56:46.038Z,11.35
2022-09-24T22:59:14.028Z,11.37
2022-09-24T23:01:43.859Z,11.37
2022-09-24T23:04:13.292Z,11.40
2022-09-24T23:06:42.019Z,11.37
2022-09-24T23:09:11.314Z,11.38
2022-09-24T23:11:39.600Z,11.39
2022-09-24T23:14:13.057Z,11.40
2022-09-24T23:16:42.633Z,11.39
2022-09-24T23:19:14.098Z,11.37
2022-09-24T23:21:42.453Z,11.35
2022-09-24T23:24:15.097Z,11.37
2022-09-24T23:26:43.235Z,11.39
2022-09-24T23:29:14.075Z,11.40
2022-09-24T23:31:42.076Z,11.39
2022-09-24T23:34:12.343Z,11.41
2022-09-24T23:36:40.324Z,11.43
2022-09-24T23:39:08.266Z,11.44
2022-09-24T23:41:36.275Z,11.44
2022-09-24T23:44:04.494Z,11.43
2022-09-24T23:46:34.608Z,11.42
2022-09-24T23:49:02.802Z,11.44
2022-09-24T23:51:30.947Z,11.43
2022-09-24T23:53:58.913Z,11.43
2022-09-24T23:56:28.347Z,11.42
2022-09-24T23:58:56.591Z,11.40
